EZY4TM EGGD-LEZL
Flight info
| Callsign | EZY4TM |
|---|---|
| Flight time | 2h 17m |
| Altitude | 39000 |
| Route | EXMOR N40 SIDHO N862 TONQU DCT SALCO DCT DELOG DCT CRISA N10 HIJ |
| Aircraft | A20N/M-SDE2E3FGHIRWXY/LB1 |
Departure
| Time | 2026-05-08 15:32 |
|---|---|
| Airport | Bristol Airport (EGGD) |
Arrival
| Time | 2026-05-08 17:50 |
|---|---|
| Airport | Seville Airport (LEZL) |
| Time | Latitude | Longitude | Altitude | Speed | Heading |
|---|---|---|---|---|---|
| 2026-05-08 15:00 | 51.38522 | -2.71142 | 594 ft | 0 kts | 356° |
| 2026-05-08 15:17 | 51.38521 | -2.71141 | 594 ft | 1 kts | 356° |
| 2026-05-08 15:17 | 51.38509 | -2.71141 | 595 ft | 0 kts | 5° |
| 2026-05-08 15:17 | 51.38511 | -2.71140 | 594 ft | 1 kts | 6° |
| 2026-05-08 15:18 | 51.38512 | -2.71140 | 594 ft | 0 kts | 6° |
| 2026-05-08 15:22 | 51.38499 | -2.71142 | 595 ft | 2 kts | 6° |
| 2026-05-08 15:22 | 51.38489 | -2.71144 | 596 ft | 2 kts | 2° |
| 2026-05-08 15:22 | 51.38475 | -2.71138 | 596 ft | 2 kts | 328° |
| 2026-05-08 15:23 | 51.38464 | -2.71122 | 596 ft | 2 kts | 299° |
| 2026-05-08 15:23 | 51.38459 | -2.71100 | 596 ft | 1 kts | 272° |
| 2026-05-08 15:23 | 51.38460 | -2.71090 | 596 ft | 1 kts | 264° |
| 2026-05-08 15:23 | 51.38460 | -2.71086 | 596 ft | 0 kts | 265° |
| 2026-05-08 15:25 | 51.38460 | -2.71090 | 596 ft | 0 kts | 265° |
| 2026-05-08 15:25 | 51.38459 | -2.71106 | 596 ft | 2 kts | 265° |
| 2026-05-08 15:26 | 51.38457 | -2.71136 | 596 ft | 3 kts | 265° |
| 2026-05-08 15:26 | 51.38456 | -2.71178 | 596 ft | 4 kts | 266° |
| 2026-05-08 15:26 | 51.38454 | -2.71233 | 596 ft | 5 kts | 267° |
| 2026-05-08 15:26 | 51.38452 | -2.71301 | 596 ft | 6 kts | 266° |
| 2026-05-08 15:27 | 51.38448 | -2.71382 | 596 ft | 7 kts | 265° |
| 2026-05-08 15:27 | 51.38444 | -2.71475 | 596 ft | 8 kts | 265° |
| 2026-05-08 15:27 | 51.38441 | -2.71580 | 596 ft | 10 kts | 267° |
| 2026-05-08 15:27 | 51.38437 | -2.71695 | 597 ft | 10 kts | 266° |
| 2026-05-08 15:28 | 51.38432 | -2.71804 | 599 ft | 9 kts | 266° |
| 2026-05-08 15:28 | 51.38431 | -2.71897 | 601 ft | 7 kts | 270° |
| 2026-05-08 15:28 | 51.38432 | -2.72022 | 602 ft | 14 kts | 267° |
| 2026-05-08 15:28 | 51.38425 | -2.72214 | 604 ft | 18 kts | 266° |
| 2026-05-08 15:29 | 51.38417 | -2.72405 | 607 ft | 16 kts | 267° |
| 2026-05-08 15:29 | 51.38411 | -2.72589 | 608 ft | 16 kts | 265° |
| 2026-05-08 15:29 | 51.38403 | -2.72781 | 607 ft | 18 kts | 265° |
| 2026-05-08 15:29 | 51.38394 | -2.72991 | 602 ft | 13 kts | 266° |
| 2026-05-08 15:30 | 51.38391 | -2.73095 | 599 ft | 6 kts | 265° |
| 2026-05-08 15:30 | 51.38388 | -2.73158 | 596 ft | 6 kts | 265° |
| 2026-05-08 15:30 | 51.38376 | -2.73265 | 593 ft | 12 kts | 246° |
| 2026-05-08 15:30 | 51.38300 | -2.73341 | 591 ft | 14 kts | 182° |
| 2026-05-08 15:31 | 51.38227 | -2.73331 | 592 ft | 6 kts | 159° |
| 2026-05-08 15:31 | 51.38217 | -2.73306 | 593 ft | 0 kts | 96° |
| 2026-05-08 15:31 | 51.38216 | -2.73198 | 599 ft | 37 kts | 87° |
| 2026-05-08 15:31 | 51.38249 | -2.72343 | 610 ft | 112 kts | 86° |
| 2026-05-08 15:32 | 51.38315 | -2.70788 | 680 ft | 160 kts | 87° |
| 2026-05-08 15:32 | 51.38418 | -2.68968 | 1103 ft | 174 kts | 88° |
| 2026-05-08 15:32 | 51.38538 | -2.66953 | 1653 ft | 189 kts | 85° |
| 2026-05-08 15:32 | 51.38708 | -2.64840 | 2394 ft | 193 kts | 89° |
| 2026-05-08 15:33 | 51.38692 | -2.62749 | 3181 ft | 195 kts | 94° |
| 2026-05-08 15:33 | 51.38640 | -2.60494 | 3729 ft | 213 kts | 91° |
| 2026-05-08 15:33 | 51.38689 | -2.58037 | 4370 ft | 229 kts | 89° |
| 2026-05-08 15:33 | 51.38541 | -2.55476 | 4994 ft | 243 kts | 112° |
| 2026-05-08 15:34 | 51.37503 | -2.53271 | 5539 ft | 259 kts | 147° |
| 2026-05-08 15:34 | 51.35809 | -2.52367 | 6307 ft | 267 kts | 178° |
| 2026-05-08 15:34 | 51.34004 | -2.52966 | 7159 ft | 274 kts | 207° |
| 2026-05-08 15:34 | 51.32543 | -2.54897 | 8101 ft | 277 kts | 225° |
| 2026-05-08 15:35 | 51.31235 | -2.57144 | 9051 ft | 278 kts | 227° |
| 2026-05-08 15:35 | 51.30252 | -2.59782 | 9925 ft | 283 kts | 251° |
| 2026-05-08 15:35 | 51.30052 | -2.62867 | 10812 ft | 287 kts | 272° |
| 2026-05-08 15:35 | 51.30203 | -2.66080 | 11451 ft | 299 kts | 273° |
| 2026-05-08 15:36 | 51.30319 | -2.69463 | 11958 ft | 312 kts | 269° |
| 2026-05-08 15:36 | 51.30310 | -2.71832 | 12229 ft | 324 kts | 267° |
| 2026-05-08 15:36 | 51.30180 | -2.76777 | 12729 ft | 348 kts | 265° |
| 2026-05-08 15:36 | 51.30035 | -2.80692 | 12995 ft | 359 kts | 265° |
| 2026-05-08 15:37 | 51.29877 | -2.84679 | 13061 ft | 360 kts | 265° |
| 2026-05-08 15:37 | 51.29713 | -2.88690 | 13058 ft | 361 kts | 265° |
| 2026-05-08 15:37 | 51.29501 | -2.92631 | 13054 ft | 360 kts | 259° |
| 2026-05-08 15:37 | 51.28614 | -2.96322 | 13040 ft | 358 kts | 237° |
| 2026-05-08 15:38 | 51.26982 | -2.99280 | 13026 ft | 359 kts | 216° |
| 2026-05-08 15:38 | 51.24740 | -3.01133 | 13533 ft | 365 kts | 199° |
| 2026-05-08 15:38 | 51.22370 | -3.02479 | 14447 ft | 364 kts | 199° |
| 2026-05-08 15:38 | 51.20024 | -3.03822 | 15220 ft | 366 kts | 199° |
| 2026-05-08 15:39 | 51.17627 | -3.05199 | 15931 ft | 369 kts | 199° |
| 2026-05-08 15:39 | 51.15200 | -3.06596 | 16638 ft | 372 kts | 200° |
| 2026-05-08 15:39 | 51.12784 | -3.07988 | 17329 ft | 374 kts | 200° |
| 2026-05-08 15:39 | 51.10329 | -3.09401 | 18006 ft | 376 kts | 200° |
| 2026-05-08 15:40 | 51.07874 | -3.10812 | 18629 ft | 380 kts | 200° |
| 2026-05-08 15:40 | 51.05404 | -3.12231 | 19253 ft | 383 kts | 200° |
| 2026-05-08 15:40 | 51.02891 | -3.13674 | 19853 ft | 386 kts | 200° |
| 2026-05-08 15:40 | 51.00363 | -3.15124 | 20455 ft | 389 kts | 200° |
| 2026-05-08 15:41 | 50.97821 | -3.16580 | 21038 ft | 392 kts | 200° |
| 2026-05-08 15:41 | 50.95253 | -3.18050 | 21605 ft | 395 kts | 200° |
| 2026-05-08 15:41 | 50.92672 | -3.19525 | 22154 ft | 398 kts | 201° |
| 2026-05-08 15:41 | 50.90067 | -3.21012 | 22707 ft | 401 kts | 201° |
| 2026-05-08 15:42 | 50.87415 | -3.22525 | 23241 ft | 404 kts | 201° |
| 2026-05-08 15:42 | 50.84773 | -3.24030 | 23755 ft | 407 kts | 201° |
| 2026-05-08 15:42 | 50.82137 | -3.25530 | 24268 ft | 410 kts | 201° |
| 2026-05-08 15:42 | 50.79448 | -3.27059 | 24738 ft | 413 kts | 201° |
| 2026-05-08 15:43 | 50.76714 | -3.28611 | 25195 ft | 416 kts | 201° |
| 2026-05-08 15:43 | 50.74021 | -3.30138 | 25639 ft | 419 kts | 201° |
| 2026-05-08 15:43 | 50.71251 | -3.31706 | 26093 ft | 421 kts | 201° |
| 2026-05-08 15:43 | 50.68517 | -3.33252 | 26518 ft | 424 kts | 201° |
| 2026-05-08 15:44 | 50.65734 | -3.34824 | 26912 ft | 426 kts | 201° |
| 2026-05-08 15:44 | 50.64017 | -3.35794 | 27145 ft | 428 kts | 201° |
| 2026-05-08 15:44 | 50.63512 | -3.36079 | 27215 ft | 429 kts | 202° |
| 2026-05-08 15:44 | 50.60726 | -3.37650 | 27599 ft | 431 kts | 202° |
| 2026-05-08 15:45 | 50.57894 | -3.39243 | 27968 ft | 434 kts | 202° |
| 2026-05-08 15:45 | 50.55042 | -3.40848 | 28320 ft | 436 kts | 202° |
| 2026-05-08 15:45 | 50.52203 | -3.42442 | 28667 ft | 438 kts | 202° |
| 2026-05-08 15:45 | 50.49312 | -3.44064 | 28996 ft | 440 kts | 202° |
| 2026-05-08 15:46 | 50.46394 | -3.45693 | 29309 ft | 443 kts | 201° |
| 2026-05-08 15:46 | 50.43446 | -3.47125 | 29688 ft | 444 kts | 198° |
| 2026-05-08 15:46 | 50.40461 | -3.48251 | 30122 ft | 443 kts | 194° |
| 2026-05-08 15:46 | 50.37416 | -3.49079 | 30532 ft | 444 kts | 191° |
| 2026-05-08 15:47 | 50.34300 | -3.49596 | 30965 ft | 444 kts | 187° |
| 2026-05-08 15:47 | 50.31236 | -3.49814 | 31414 ft | 442 kts | 185° |
| 2026-05-08 15:47 | 50.28153 | -3.49980 | 31856 ft | 440 kts | 185° |
| 2026-05-08 15:47 | 50.25131 | -3.50145 | 32263 ft | 438 kts | 185° |
| 2026-05-08 15:48 | 50.19076 | -3.50476 | 33046 ft | 435 kts | 185° |
| 2026-05-08 15:48 | 50.16046 | -3.50642 | 33388 ft | 434 kts | 185° |
| 2026-05-08 15:48 | 50.13076 | -3.50805 | 33742 ft | 432 kts | 185° |
| 2026-05-08 15:49 | 50.10091 | -3.50969 | 34087 ft | 431 kts | 186° |
| 2026-05-08 15:49 | 50.07093 | -3.51132 | 34421 ft | 429 kts | 186° |
| 2026-05-08 15:49 | 50.04116 | -3.51294 | 34725 ft | 428 kts | 185° |
| 2026-05-08 15:49 | 50.01179 | -3.51457 | 34990 ft | 427 kts | 185° |
| 2026-05-08 15:50 | 49.98209 | -3.51617 | 35228 ft | 427 kts | 185° |
| 2026-05-08 15:50 | 49.95238 | -3.51779 | 35446 ft | 426 kts | 185° |
| 2026-05-08 15:50 | 49.92308 | -3.51937 | 35670 ft | 426 kts | 185° |
| 2026-05-08 15:50 | 49.89318 | -3.52101 | 35920 ft | 425 kts | 185° |
| 2026-05-08 15:51 | 49.86414 | -3.52257 | 36152 ft | 424 kts | 185° |
| 2026-05-08 15:51 | 49.83441 | -3.52418 | 36358 ft | 424 kts | 185° |
| 2026-05-08 15:51 | 49.80513 | -3.52576 | 36553 ft | 424 kts | 185° |
| 2026-05-08 15:51 | 49.77580 | -3.52735 | 36748 ft | 423 kts | 185° |
| 2026-05-08 15:52 | 49.74642 | -3.52893 | 36977 ft | 423 kts | 185° |
| 2026-05-08 15:52 | 49.71720 | -3.53089 | 37215 ft | 422 kts | 186° |
| 2026-05-08 15:52 | 49.68782 | -3.53359 | 37419 ft | 423 kts | 187° |
| 2026-05-08 15:52 | 49.65854 | -3.53643 | 37569 ft | 424 kts | 187° |
| 2026-05-08 15:53 | 49.62935 | -3.53926 | 37708 ft | 424 kts | 187° |
| 2026-05-08 15:53 | 49.60001 | -3.54208 | 37867 ft | 425 kts | 186° |
| 2026-05-08 15:53 | 49.57053 | -3.54488 | 38026 ft | 425 kts | 186° |
| 2026-05-08 15:53 | 49.54123 | -3.54764 | 38262 ft | 423 kts | 186° |
| 2026-05-08 15:54 | 49.51164 | -3.55040 | 38578 ft | 420 kts | 186° |
| 2026-05-08 15:54 | 49.48276 | -3.55310 | 38736 ft | 420 kts | 186° |
| 2026-05-08 15:54 | 49.45360 | -3.55582 | 38896 ft | 420 kts | 186° |
| 2026-05-08 15:55 | 49.39529 | -3.56124 | 38997 ft | 423 kts | 186° |
| 2026-05-08 15:55 | 49.30685 | -3.56943 | 38993 ft | 429 kts | 186° |
| 2026-05-08 15:56 | 49.24717 | -3.57492 | 39002 ft | 430 kts | 186° |
| 2026-05-08 15:56 | 49.18785 | -3.58038 | 38991 ft | 430 kts | 186° |
| 2026-05-08 15:57 | 49.12840 | -3.58582 | 38987 ft | 429 kts | 186° |
| 2026-05-08 15:57 | 49.06877 | -3.59127 | 38984 ft | 429 kts | 186° |
| 2026-05-08 15:58 | 49.00941 | -3.59669 | 38990 ft | 429 kts | 186° |
| 2026-05-08 15:58 | 48.94994 | -3.60210 | 38975 ft | 429 kts | 185° |
| 2026-05-08 15:59 | 48.89065 | -3.60749 | 38970 ft | 429 kts | 185° |
| 2026-05-08 15:59 | 48.83097 | -3.61288 | 38973 ft | 429 kts | 186° |
| 2026-05-08 16:00 | 48.77150 | -3.61826 | 38974 ft | 429 kts | 185° |
| 2026-05-08 16:00 | 48.71198 | -3.62363 | 38971 ft | 429 kts | 185° |
| 2026-05-08 16:01 | 48.65271 | -3.62897 | 38970 ft | 428 kts | 185° |
| 2026-05-08 16:01 | 48.59373 | -3.63427 | 38966 ft | 428 kts | 185° |
| 2026-05-08 16:02 | 48.53453 | -3.63956 | 38967 ft | 428 kts | 185° |
| 2026-05-08 16:02 | 48.47502 | -3.64488 | 38964 ft | 428 kts | 185° |
| 2026-05-08 16:03 | 48.41577 | -3.65016 | 38957 ft | 428 kts | 184° |
| 2026-05-08 16:03 | 48.35648 | -3.65542 | 38956 ft | 428 kts | 184° |
| 2026-05-08 16:04 | 48.29715 | -3.66067 | 38951 ft | 429 kts | 184° |
| 2026-05-08 16:04 | 48.23792 | -3.66592 | 38950 ft | 429 kts | 184° |
| 2026-05-08 16:05 | 48.17840 | -3.67119 | 38949 ft | 429 kts | 184° |
| 2026-05-08 16:05 | 48.11906 | -3.67642 | 38944 ft | 428 kts | 184° |
| 2026-05-08 16:06 | 48.05985 | -3.68161 | 38944 ft | 428 kts | 184° |
| 2026-05-08 16:06 | 48.00061 | -3.68682 | 38943 ft | 427 kts | 183° |
| 2026-05-08 16:07 | 47.94116 | -3.69201 | 38934 ft | 427 kts | 183° |
| 2026-05-08 16:07 | 47.88193 | -3.69717 | 38936 ft | 428 kts | 183° |
| 2026-05-08 16:08 | 47.82256 | -3.70233 | 38926 ft | 428 kts | 183° |
| 2026-05-08 16:08 | 47.76351 | -3.70747 | 38924 ft | 428 kts | 183° |
| 2026-05-08 16:09 | 47.71390 | -3.71178 | 38917 ft | 428 kts | 183° |
| 2026-05-08 16:09 | 47.64453 | -3.71778 | 38920 ft | 428 kts | 183° |
| 2026-05-08 16:10 | 47.58522 | -3.72289 | 38905 ft | 427 kts | 183° |
| 2026-05-08 16:10 | 47.52626 | -3.72797 | 38910 ft | 427 kts | 183° |
| 2026-05-08 16:11 | 47.46669 | -3.73308 | 38906 ft | 426 kts | 183° |
| 2026-05-08 16:11 | 47.40755 | -3.73815 | 38898 ft | 427 kts | 183° |
| 2026-05-08 16:12 | 47.34853 | -3.74320 | 38901 ft | 427 kts | 182° |
| 2026-05-08 16:12 | 47.28953 | -3.74824 | 38901 ft | 427 kts | 182° |
| 2026-05-08 16:13 | 47.23008 | -3.75330 | 38898 ft | 427 kts | 182° |
| 2026-05-08 16:13 | 47.17075 | -3.75834 | 38900 ft | 428 kts | 182° |
| 2026-05-08 16:14 | 47.11169 | -3.76334 | 38907 ft | 428 kts | 182° |
| 2026-05-08 16:14 | 47.05248 | -3.76836 | 38905 ft | 427 kts | 182° |
| 2026-05-08 16:15 | 46.99336 | -3.77336 | 38893 ft | 427 kts | 182° |
| 2026-05-08 16:15 | 46.93435 | -3.77831 | 38901 ft | 426 kts | 182° |
| 2026-05-08 16:16 | 46.87510 | -3.78328 | 38905 ft | 426 kts | 182° |
| 2026-05-08 16:16 | 46.81613 | -3.78821 | 38904 ft | 427 kts | 182° |
| 2026-05-08 16:17 | 46.76678 | -3.79234 | 38885 ft | 427 kts | 182° |
| 2026-05-08 16:17 | 46.69756 | -3.79813 | 38892 ft | 427 kts | 182° |
| 2026-05-08 16:18 | 46.63845 | -3.80307 | 38890 ft | 427 kts | 182° |
| 2026-05-08 16:18 | 46.57928 | -3.80797 | 38876 ft | 428 kts | 182° |
| 2026-05-08 16:19 | 46.51992 | -3.81289 | 38881 ft | 428 kts | 182° |
| 2026-05-08 16:19 | 46.46058 | -3.81779 | 38885 ft | 428 kts | 182° |
| 2026-05-08 16:20 | 46.40132 | -3.82267 | 38869 ft | 427 kts | 182° |
| 2026-05-08 16:20 | 46.34218 | -3.82755 | 38873 ft | 427 kts | 182° |
| 2026-05-08 16:21 | 46.28278 | -3.83244 | 38876 ft | 427 kts | 182° |
| 2026-05-08 16:21 | 46.22377 | -3.83728 | 38877 ft | 427 kts | 182° |
| 2026-05-08 16:22 | 46.16473 | -3.84212 | 38879 ft | 428 kts | 182° |
| 2026-05-08 16:22 | 46.10512 | -3.84698 | 38885 ft | 428 kts | 182° |
| 2026-05-08 16:23 | 46.04602 | -3.85180 | 38882 ft | 429 kts | 182° |
| 2026-05-08 16:23 | 45.98610 | -3.85665 | 38876 ft | 429 kts | 182° |
| 2026-05-08 16:24 | 45.92695 | -3.86144 | 38884 ft | 429 kts | 182° |
| 2026-05-08 16:24 | 45.86721 | -3.86628 | 38870 ft | 429 kts | 182° |
| 2026-05-08 16:25 | 45.80810 | -3.87106 | 38886 ft | 428 kts | 182° |
| 2026-05-08 16:25 | 45.74889 | -3.87584 | 38857 ft | 428 kts | 182° |
| 2026-05-08 16:26 | 45.68950 | -3.88062 | 38850 ft | 429 kts | 182° |
| 2026-05-08 16:26 | 45.62994 | -3.88538 | 38873 ft | 429 kts | 182° |
| 2026-05-08 16:27 | 45.57028 | -3.89016 | 38849 ft | 429 kts | 182° |
| 2026-05-08 16:27 | 45.51091 | -3.89490 | 38850 ft | 430 kts | 182° |
| 2026-05-08 16:28 | 45.45155 | -3.89964 | 38847 ft | 429 kts | 182° |
| 2026-05-08 16:28 | 45.39189 | -3.90441 | 38841 ft | 429 kts | 182° |
| 2026-05-08 16:29 | 45.33239 | -3.90913 | 38865 ft | 429 kts | 182° |
| 2026-05-08 16:29 | 45.27291 | -3.91383 | 38880 ft | 429 kts | 182° |
| 2026-05-08 16:30 | 45.21351 | -3.91852 | 38851 ft | 428 kts | 182° |
| 2026-05-08 16:30 | 45.15416 | -3.92320 | 38840 ft | 430 kts | 182° |
| 2026-05-08 16:31 | 45.09468 | -3.92788 | 38859 ft | 430 kts | 182° |
| 2026-05-08 16:31 | 45.03478 | -3.93261 | 38855 ft | 431 kts | 182° |
| 2026-05-08 16:32 | 44.97501 | -3.93729 | 38839 ft | 431 kts | 183° |
| 2026-05-08 16:32 | 44.91552 | -3.94195 | 38840 ft | 430 kts | 183° |
| 2026-05-08 16:33 | 44.85576 | -3.94661 | 38845 ft | 430 kts | 183° |
| 2026-05-08 16:33 | 44.79575 | -3.95128 | 38858 ft | 430 kts | 183° |
| 2026-05-08 16:34 | 44.73655 | -3.95590 | 38871 ft | 430 kts | 183° |
| 2026-05-08 16:34 | 44.67669 | -3.96055 | 38875 ft | 430 kts | 183° |
| 2026-05-08 16:35 | 44.61686 | -3.96519 | 38870 ft | 430 kts | 183° |
| 2026-05-08 16:35 | 44.55756 | -3.96978 | 38860 ft | 431 kts | 183° |
| 2026-05-08 16:36 | 44.49766 | -3.97440 | 38857 ft | 431 kts | 183° |
| 2026-05-08 16:36 | 44.43808 | -3.97898 | 38861 ft | 431 kts | 184° |
| 2026-05-08 16:37 | 44.37820 | -3.98359 | 38862 ft | 432 kts | 184° |
| 2026-05-08 16:37 | 44.31858 | -3.98832 | 38860 ft | 431 kts | 184° |
| 2026-05-08 16:38 | 44.25883 | -3.99503 | 38865 ft | 431 kts | 185° |
| 2026-05-08 16:38 | 44.19917 | -4.00204 | 38878 ft | 431 kts | 185° |
| 2026-05-08 16:39 | 44.13967 | -4.00894 | 38857 ft | 430 kts | 185° |
| 2026-05-08 16:39 | 44.07987 | -4.01579 | 38866 ft | 430 kts | 185° |
| 2026-05-08 16:40 | 44.02050 | -4.02257 | 38863 ft | 430 kts | 185° |
| 2026-05-08 16:40 | 43.96067 | -4.02938 | 38864 ft | 431 kts | 185° |
| 2026-05-08 16:41 | 43.90117 | -4.03613 | 38870 ft | 431 kts | 185° |
| 2026-05-08 16:42 | 43.81167 | -4.04628 | 38876 ft | 431 kts | 185° |
| 2026-05-08 16:42 | 43.75209 | -4.05300 | 38886 ft | 431 kts | 185° |
| 2026-05-08 16:43 | 43.69248 | -4.05969 | 38887 ft | 430 kts | 186° |
| 2026-05-08 16:43 | 43.63272 | -4.06640 | 38890 ft | 429 kts | 186° |
| 2026-05-08 16:44 | 43.57346 | -4.07307 | 38885 ft | 429 kts | 186° |
| 2026-05-08 16:44 | 43.51409 | -4.07971 | 38881 ft | 429 kts | 186° |
| 2026-05-08 16:45 | 43.45459 | -4.08636 | 38882 ft | 428 kts | 186° |
| 2026-05-08 16:45 | 43.39491 | -4.09302 | 38886 ft | 428 kts | 186° |
| 2026-05-08 16:46 | 43.33588 | -4.09960 | 38888 ft | 429 kts | 186° |
| 2026-05-08 16:46 | 43.27644 | -4.10619 | 38888 ft | 428 kts | 186° |
| 2026-05-08 16:47 | 43.21695 | -4.11278 | 38898 ft | 427 kts | 186° |
| 2026-05-08 16:47 | 43.15776 | -4.11934 | 38898 ft | 427 kts | 186° |
| 2026-05-08 16:48 | 43.09849 | -4.12587 | 38896 ft | 426 kts | 186° |
| 2026-05-08 16:48 | 43.03933 | -4.13239 | 38903 ft | 426 kts | 186° |
| 2026-05-08 16:49 | 42.98020 | -4.13888 | 38910 ft | 425 kts | 186° |
| 2026-05-08 16:49 | 42.92112 | -4.14538 | 38909 ft | 425 kts | 186° |
| 2026-05-08 16:50 | 42.86217 | -4.15186 | 38899 ft | 426 kts | 186° |
| 2026-05-08 16:50 | 42.80300 | -4.15834 | 38904 ft | 427 kts | 186° |
| 2026-05-08 16:51 | 42.74367 | -4.16481 | 38915 ft | 426 kts | 186° |
| 2026-05-08 16:51 | 42.68448 | -4.17125 | 38910 ft | 426 kts | 186° |
| 2026-05-08 16:52 | 42.62582 | -4.17764 | 38901 ft | 426 kts | 186° |
| 2026-05-08 16:52 | 42.56658 | -4.18405 | 38918 ft | 425 kts | 186° |
| 2026-05-08 16:53 | 42.47812 | -4.19362 | 38919 ft | 425 kts | 186° |
| 2026-05-08 16:53 | 42.41935 | -4.19999 | 38913 ft | 425 kts | 186° |
| 2026-05-08 16:54 | 42.36046 | -4.20633 | 38921 ft | 424 kts | 187° |
| 2026-05-08 16:54 | 42.30117 | -4.21272 | 38924 ft | 424 kts | 187° |
| 2026-05-08 16:55 | 42.24232 | -4.21903 | 38920 ft | 424 kts | 187° |
| 2026-05-08 16:55 | 42.18363 | -4.22533 | 38913 ft | 423 kts | 187° |
| 2026-05-08 16:56 | 42.12468 | -4.23164 | 38920 ft | 424 kts | 187° |
| 2026-05-08 16:56 | 42.06570 | -4.23794 | 38916 ft | 424 kts | 187° |
| 2026-05-08 16:57 | 42.00663 | -4.24424 | 38900 ft | 424 kts | 187° |
| 2026-05-08 16:57 | 41.94798 | -4.25047 | 38901 ft | 424 kts | 187° |
| 2026-05-08 16:58 | 41.88900 | -4.25674 | 38896 ft | 424 kts | 187° |
| 2026-05-08 16:58 | 41.83028 | -4.26296 | 38900 ft | 424 kts | 187° |
| 2026-05-08 16:59 | 41.77127 | -4.26921 | 38907 ft | 425 kts | 187° |
| 2026-05-08 16:59 | 41.71222 | -4.27544 | 38898 ft | 424 kts | 187° |
| 2026-05-08 17:00 | 41.65374 | -4.28160 | 38905 ft | 423 kts | 187° |
| 2026-05-08 17:00 | 41.59524 | -4.28777 | 38916 ft | 423 kts | 187° |
| 2026-05-08 17:01 | 41.53635 | -4.29396 | 38916 ft | 424 kts | 187° |
| 2026-05-08 17:01 | 41.47779 | -4.30010 | 38920 ft | 425 kts | 188° |
| 2026-05-08 17:02 | 41.41888 | -4.30627 | 38921 ft | 425 kts | 188° |
| 2026-05-08 17:02 | 41.35996 | -4.31243 | 38920 ft | 425 kts | 188° |
| 2026-05-08 17:03 | 41.30085 | -4.31858 | 38919 ft | 425 kts | 188° |
| 2026-05-08 17:03 | 41.24225 | -4.32470 | 38921 ft | 425 kts | 188° |
| 2026-05-08 17:04 | 41.18340 | -4.33081 | 38909 ft | 425 kts | 188° |
| 2026-05-08 17:04 | 41.12451 | -4.33689 | 38914 ft | 425 kts | 188° |
| 2026-05-08 17:05 | 41.06531 | -4.34303 | 38910 ft | 426 kts | 188° |
| 2026-05-08 17:05 | 41.00643 | -4.34913 | 38918 ft | 425 kts | 188° |
| 2026-05-08 17:06 | 40.94760 | -4.35520 | 38926 ft | 425 kts | 188° |
| 2026-05-08 17:06 | 40.88850 | -4.36127 | 38930 ft | 425 kts | 189° |
| 2026-05-08 17:07 | 40.82993 | -4.36730 | 38929 ft | 424 kts | 189° |
| 2026-05-08 17:07 | 40.77095 | -4.37334 | 38925 ft | 422 kts | 189° |
| 2026-05-08 17:08 | 40.71236 | -4.37934 | 38928 ft | 422 kts | 189° |
| 2026-05-08 17:08 | 40.65403 | -4.38531 | 38935 ft | 420 kts | 189° |
| 2026-05-08 17:09 | 40.59594 | -4.39126 | 38930 ft | 419 kts | 189° |
| 2026-05-08 17:09 | 40.53799 | -4.39715 | 38926 ft | 418 kts | 189° |
| 2026-05-08 17:10 | 40.48000 | -4.40305 | 38932 ft | 418 kts | 190° |
| 2026-05-08 17:10 | 40.42257 | -4.40889 | 38922 ft | 415 kts | 190° |
| 2026-05-08 17:11 | 40.36485 | -4.41473 | 38920 ft | 415 kts | 189° |
| 2026-05-08 17:11 | 40.30722 | -4.42056 | 38924 ft | 414 kts | 190° |
| 2026-05-08 17:12 | 40.24995 | -4.42635 | 38916 ft | 413 kts | 190° |
| 2026-05-08 17:12 | 40.19304 | -4.43207 | 38907 ft | 412 kts | 190° |
| 2026-05-08 17:13 | 40.13579 | -4.43784 | 38914 ft | 412 kts | 190° |
| 2026-05-08 17:13 | 40.07880 | -4.44356 | 38896 ft | 409 kts | 191° |
| 2026-05-08 17:14 | 40.02247 | -4.44921 | 38901 ft | 408 kts | 191° |
| 2026-05-08 17:14 | 39.96596 | -4.45491 | 38898 ft | 406 kts | 191° |
| 2026-05-08 17:15 | 39.90975 | -4.46051 | 38894 ft | 406 kts | 191° |
| 2026-05-08 17:15 | 39.85329 | -4.46616 | 38899 ft | 406 kts | 191° |
| 2026-05-08 17:16 | 39.79703 | -4.47174 | 38898 ft | 406 kts | 191° |
| 2026-05-08 17:16 | 39.74103 | -4.47734 | 38896 ft | 404 kts | 191° |
| 2026-05-08 17:17 | 39.68528 | -4.48288 | 38901 ft | 404 kts | 192° |
| 2026-05-08 17:17 | 39.62933 | -4.48847 | 38905 ft | 403 kts | 191° |
| 2026-05-08 17:18 | 39.57357 | -4.49398 | 38914 ft | 402 kts | 192° |
| 2026-05-08 17:18 | 39.51800 | -4.49945 | 38917 ft | 400 kts | 192° |
| 2026-05-08 17:19 | 39.46233 | -4.50497 | 38919 ft | 401 kts | 192° |
| 2026-05-08 17:19 | 39.40710 | -4.51042 | 38918 ft | 399 kts | 192° |
| 2026-05-08 17:20 | 39.35174 | -4.51586 | 38921 ft | 400 kts | 192° |
| 2026-05-08 17:20 | 39.29616 | -4.52130 | 38911 ft | 400 kts | 192° |
| 2026-05-08 17:21 | 39.24089 | -4.52674 | 38923 ft | 398 kts | 192° |
| 2026-05-08 17:21 | 39.18585 | -4.53217 | 38917 ft | 398 kts | 192° |
| 2026-05-08 17:22 | 39.13083 | -4.53755 | 38902 ft | 398 kts | 192° |
| 2026-05-08 17:22 | 39.07572 | -4.54293 | 38905 ft | 397 kts | 192° |
| 2026-05-08 17:23 | 39.02081 | -4.54918 | 38907 ft | 392 kts | 197° |
| 2026-05-08 17:23 | 38.99445 | -4.55591 | 38796 ft | 387 kts | 201° |
| 2026-05-08 17:23 | 38.96884 | -4.56594 | 38537 ft | 380 kts | 206° |
| 2026-05-08 17:24 | 38.94467 | -4.57869 | 38282 ft | 372 kts | 211° |
| 2026-05-08 17:24 | 38.92191 | -4.59412 | 38033 ft | 364 kts | 216° |
| 2026-05-08 17:24 | 38.90093 | -4.61164 | 37777 ft | 358 kts | 220° |
| 2026-05-08 17:24 | 38.88148 | -4.63129 | 37520 ft | 354 kts | 224° |
| 2026-05-08 17:25 | 38.86366 | -4.65261 | 37259 ft | 352 kts | 225° |
| 2026-05-08 17:25 | 38.84596 | -4.67462 | 36997 ft | 351 kts | 226° |
| 2026-05-08 17:25 | 38.82863 | -4.69632 | 36700 ft | 350 kts | 226° |
| 2026-05-08 17:25 | 38.81121 | -4.71820 | 36405 ft | 349 kts | 226° |
| 2026-05-08 17:26 | 38.79394 | -4.73994 | 36124 ft | 348 kts | 226° |
| 2026-05-08 17:26 | 38.77677 | -4.76157 | 35874 ft | 348 kts | 226° |
| 2026-05-08 17:26 | 38.75971 | -4.78308 | 35595 ft | 348 kts | 226° |
| 2026-05-08 17:26 | 38.74248 | -4.80484 | 35212 ft | 347 kts | 226° |
| 2026-05-08 17:27 | 38.72526 | -4.82655 | 34678 ft | 347 kts | 226° |
| 2026-05-08 17:27 | 38.70829 | -4.84796 | 34087 ft | 347 kts | 226° |
| 2026-05-08 17:27 | 38.69115 | -4.86962 | 33355 ft | 349 kts | 226° |
| 2026-05-08 17:27 | 38.67390 | -4.89139 | 32599 ft | 351 kts | 226° |
| 2026-05-08 17:28 | 38.65655 | -4.91322 | 31815 ft | 353 kts | 226° |
| 2026-05-08 17:28 | 38.63905 | -4.93521 | 31033 ft | 356 kts | 226° |
| 2026-05-08 17:28 | 38.62136 | -4.95742 | 30235 ft | 360 kts | 226° |
| 2026-05-08 17:28 | 38.60358 | -4.97981 | 29384 ft | 364 kts | 226° |
| 2026-05-08 17:29 | 38.58536 | -5.00277 | 28522 ft | 368 kts | 226° |
| 2026-05-08 17:29 | 38.56718 | -5.02561 | 27863 ft | 366 kts | 226° |
| 2026-05-08 17:29 | 38.54933 | -5.04799 | 27343 ft | 361 kts | 226° |
| 2026-05-08 17:29 | 38.53105 | -5.06968 | 26795 ft | 359 kts | 221° |
| 2026-05-08 17:30 | 38.51092 | -5.08821 | 26245 ft | 358 kts | 215° |
| 2026-05-08 17:30 | 38.48893 | -5.10362 | 25696 ft | 357 kts | 208° |
| 2026-05-08 17:30 | 38.46587 | -5.11533 | 25152 ft | 357 kts | 202° |
| 2026-05-08 17:30 | 38.44253 | -5.12484 | 24639 ft | 355 kts | 202° |
| 2026-05-08 17:31 | 38.41903 | -5.13422 | 24122 ft | 352 kts | 201° |
| 2026-05-08 17:31 | 38.39573 | -5.14349 | 23613 ft | 349 kts | 201° |
| 2026-05-08 17:31 | 38.37244 | -5.15265 | 23105 ft | 347 kts | 201° |
| 2026-05-08 17:31 | 38.34941 | -5.16170 | 22603 ft | 345 kts | 201° |
| 2026-05-08 17:32 | 38.32670 | -5.17060 | 22107 ft | 342 kts | 200° |
| 2026-05-08 17:32 | 38.30393 | -5.17949 | 21614 ft | 339 kts | 200° |
| 2026-05-08 17:32 | 38.28135 | -5.18831 | 21122 ft | 337 kts | 200° |
| 2026-05-08 17:32 | 38.25895 | -5.19707 | 20622 ft | 335 kts | 201° |
| 2026-05-08 17:33 | 38.23653 | -5.20578 | 20068 ft | 335 kts | 200° |
| 2026-05-08 17:33 | 38.21431 | -5.21443 | 19476 ft | 336 kts | 201° |
| 2026-05-08 17:33 | 38.19200 | -5.22314 | 18895 ft | 336 kts | 200° |
| 2026-05-08 17:33 | 38.16978 | -5.23178 | 18345 ft | 335 kts | 200° |
| 2026-05-08 17:34 | 38.14751 | -5.24046 | 17794 ft | 334 kts | 200° |
| 2026-05-08 17:34 | 38.12557 | -5.24900 | 17264 ft | 332 kts | 200° |
| 2026-05-08 17:34 | 38.10339 | -5.25765 | 16700 ft | 332 kts | 200° |
| 2026-05-08 17:34 | 38.08147 | -5.26615 | 16150 ft | 331 kts | 200° |
| 2026-05-08 17:35 | 38.05941 | -5.27475 | 15576 ft | 331 kts | 200° |
| 2026-05-08 17:35 | 38.03744 | -5.28326 | 15003 ft | 331 kts | 199° |
| 2026-05-08 17:35 | 38.01557 | -5.29174 | 14456 ft | 329 kts | 200° |
| 2026-05-08 17:35 | 37.99365 | -5.30028 | 13890 ft | 329 kts | 200° |
| 2026-05-08 17:36 | 37.97178 | -5.30877 | 13330 ft | 328 kts | 200° |
| 2026-05-08 17:36 | 37.95018 | -5.31716 | 12781 ft | 327 kts | 199° |
| 2026-05-08 17:36 | 37.92847 | -5.32557 | 12233 ft | 325 kts | 199° |
| 2026-05-08 17:36 | 37.90671 | -5.33398 | 11651 ft | 325 kts | 199° |
| 2026-05-08 17:37 | 37.88502 | -5.34236 | 11082 ft | 325 kts | 198° |
| 2026-05-08 17:37 | 37.86382 | -5.35049 | 10735 ft | 316 kts | 198° |
| 2026-05-08 17:37 | 37.84306 | -5.35849 | 10532 ft | 304 kts | 198° |
| 2026-05-08 17:37 | 37.82330 | -5.36612 | 10346 ft | 292 kts | 198° |
| 2026-05-08 17:38 | 37.80407 | -5.37352 | 10119 ft | 282 kts | 198° |
| 2026-05-08 17:38 | 37.78590 | -5.38051 | 9987 ft | 265 kts | 198° |
| 2026-05-08 17:38 | 37.76912 | -5.38928 | 9817 ft | 255 kts | 208° |
| 2026-05-08 17:38 | 37.75445 | -5.40160 | 9429 ft | 256 kts | 218° |
| 2026-05-08 17:39 | 37.74102 | -5.41631 | 9061 ft | 257 kts | 220° |
| 2026-05-08 17:39 | 37.72759 | -5.43147 | 8705 ft | 256 kts | 220° |
| 2026-05-08 17:39 | 37.71446 | -5.44633 | 8358 ft | 256 kts | 220° |
| 2026-05-08 17:39 | 37.70110 | -5.46138 | 8005 ft | 255 kts | 220° |
| 2026-05-08 17:40 | 37.68804 | -5.47606 | 7676 ft | 254 kts | 220° |
| 2026-05-08 17:40 | 37.67481 | -5.49092 | 7330 ft | 253 kts | 220° |
| 2026-05-08 17:40 | 37.66164 | -5.50569 | 6990 ft | 252 kts | 219° |
| 2026-05-08 17:40 | 37.64848 | -5.52051 | 6652 ft | 252 kts | 220° |
| 2026-05-08 17:41 | 37.63549 | -5.53525 | 6310 ft | 252 kts | 220° |
| 2026-05-08 17:41 | 37.62253 | -5.55005 | 5976 ft | 251 kts | 219° |
| 2026-05-08 17:41 | 37.60947 | -5.56491 | 5648 ft | 250 kts | 219° |
| 2026-05-08 17:41 | 37.59654 | -5.57957 | 5322 ft | 250 kts | 219° |
| 2026-05-08 17:42 | 37.58360 | -5.59425 | 4999 ft | 249 kts | 219° |
| 2026-05-08 17:42 | 37.57082 | -5.60874 | 4675 ft | 248 kts | 219° |
| 2026-05-08 17:42 | 37.55802 | -5.62326 | 4345 ft | 243 kts | 219° |
| 2026-05-08 17:42 | 37.54481 | -5.63578 | 3992 ft | 231 kts | 202° |
| 2026-05-08 17:43 | 37.52957 | -5.63948 | 3696 ft | 221 kts | 175° |
| 2026-05-08 17:43 | 37.51487 | -5.63434 | 3436 ft | 217 kts | 152° |
| 2026-05-08 17:43 | 37.50206 | -5.62403 | 3413 ft | 220 kts | 148° |
| 2026-05-08 17:43 | 37.48891 | -5.61407 | 3382 ft | 220 kts | 153° |
| 2026-05-08 17:44 | 37.47509 | -5.60596 | 3348 ft | 219 kts | 159° |
| 2026-05-08 17:44 | 37.46063 | -5.59995 | 3292 ft | 215 kts | 166° |
| 2026-05-08 17:44 | 37.44622 | -5.59748 | 3168 ft | 206 kts | 189° |
| 2026-05-08 17:44 | 37.43383 | -5.60593 | 2988 ft | 204 kts | 223° |
| 2026-05-08 17:45 | 37.42461 | -5.61949 | 2896 ft | 205 kts | 237° |
| 2026-05-08 17:45 | 37.41958 | -5.63651 | 2685 ft | 210 kts | 257° |
| 2026-05-08 17:45 | 37.41826 | -5.65472 | 2497 ft | 208 kts | 265° |
| 2026-05-08 17:45 | 37.41848 | -5.67311 | 2320 ft | 209 kts | 268° |
| 2026-05-08 17:46 | 37.41881 | -5.69058 | 2219 ft | 195 kts | 267° |
| 2026-05-08 17:46 | 37.41893 | -5.70715 | 2084 ft | 182 kts | 266° |
| 2026-05-08 17:46 | 37.41889 | -5.72235 | 2058 ft | 164 kts | 265° |
| 2026-05-08 17:46 | 37.41880 | -5.73595 | 2034 ft | 147 kts | 265° |
| 2026-05-08 17:47 | 37.41869 | -5.74867 | 1984 ft | 146 kts | 264° |
| 2026-05-08 17:47 | 37.41856 | -5.76142 | 1797 ft | 145 kts | 265° |
| 2026-05-08 17:47 | 37.41846 | -5.77393 | 1642 ft | 140 kts | 264° |
| 2026-05-08 17:47 | 37.41843 | -5.78192 | 1504 ft | 134 kts | 265° |
| 2026-05-08 17:48 | 37.41839 | -5.79740 | 1263 ft | 132 kts | 265° |
| 2026-05-08 17:48 | 37.41831 | -5.80884 | 1105 ft | 131 kts | 266° |
| 2026-05-08 17:48 | 37.41825 | -5.82025 | 943 ft | 131 kts | 266° |
| 2026-05-08 17:48 | 37.41821 | -5.83173 | 769 ft | 131 kts | 266° |
| 2026-05-08 17:49 | 37.41816 | -5.84317 | 595 ft | 130 kts | 266° |
| 2026-05-08 17:49 | 37.41811 | -5.85459 | 433 ft | 131 kts | 266° |
| 2026-05-08 17:49 | 37.41811 | -5.86593 | 270 ft | 130 kts | 267° |
| 2026-05-08 17:49 | 37.41798 | -5.87725 | 110 ft | 125 kts | 268° |
| 2026-05-08 17:50 | 37.41794 | -5.88679 | 94 ft | 86 kts | 270° |
| 2026-05-08 17:50 | 37.41795 | -5.89166 | 91 ft | 29 kts | 280° |
| 2026-05-08 17:50 | 37.41907 | -5.89302 | 90 ft | 15 kts | 333° |
| 2026-05-08 17:50 | 37.41986 | -5.89368 | 91 ft | 13 kts | 321° |
| 2026-05-08 17:51 | 37.42055 | -5.89451 | 91 ft | 14 kts | 314° |
| 2026-05-08 17:51 | 37.42126 | -5.89543 | 91 ft | 15 kts | 313° |
| 2026-05-08 17:51 | 37.42200 | -5.89637 | 92 ft | 15 kts | 314° |
| 2026-05-08 17:51 | 37.42268 | -5.89720 | 93 ft | 8 kts | 330° |
| 2026-05-08 17:52 | 37.42317 | -5.89760 | 94 ft | 8 kts | 315° |
| 2026-05-08 17:52 | 37.42330 | -5.89777 | 94 ft | 0 kts | 314° |
| 2026-05-08 17:52 | 37.42335 | -5.89783 | 94 ft | 0 kts | 314° |
| 2026-05-08 17:53 | 37.42336 | -5.89784 | 94 ft | 0 kts | 314° |
| 2026-05-08 17:53 | 37.42339 | -5.89788 | 94 ft | 0 kts | 314° |
| 2026-05-08 17:53 | 37.42339 | -5.89789 | 94 ft | 0 kts | 314° |